Terminal Aerodrome Forecast
Issued by NWS Paducah, KY

Home | Current Version | Previous Version | Text Only | Print | Product List | Glossary On
Versions: 1 2 3 4 5 6 7 8 9 10 11 12 13 14
000
FTUS43 KPAH 012339
TAFPAH
TAF
KPAH 012339Z 0200/0224 35005KT 6SM BR BKN015 OVC035
     FM020700 01006KT P6SM FEW015 OVC025
     FM021200 05007KT P6SM SKC=

USA.gov is the U.S. government's official web portal to all federal, state and local government web resources and services.